createdAt,value
2023-01-27T00:01:17.557Z,12.27
2023-01-27T00:03:51.061Z,17.80
2023-01-27T00:06:23.682Z,12.38
2023-01-27T00:08:52.737Z,10.35
2023-01-27T00:11:51.279Z,12.65
2023-01-27T00:14:28.221Z,11.82
2023-01-27T00:17:03.645Z,14.73
2023-01-27T00:19:31.593Z,12.73
2023-01-27T00:22:18.772Z,14.75
2023-01-27T00:24:46.747Z,13.38
2023-01-27T00:27:15.138Z,13.43
2023-01-27T00:29:43.164Z,13.50
2023-01-27T00:32:30.433Z,13.07
2023-01-27T00:35:00.710Z,14.55
2023-01-27T00:37:30.149Z,12.27
2023-01-27T00:39:58.013Z,16.35
2023-01-27T00:42:26.807Z,13.82
2023-01-27T00:45:13.233Z,12.98
2023-01-27T00:47:44.225Z,14.45
2023-01-27T00:50:13.691Z,11.77
2023-01-27T00:52:44.678Z,11.15
2023-01-27T00:55:15.962Z,10.15
2023-01-27T00:57:45.636Z,12.10
2023-01-27T01:00:15.864Z,12.45
2023-01-27T01:02:44.507Z,12.13
2023-01-27T01:05:14.013Z,12.00
2023-01-27T01:07:44.091Z,11.45
2023-01-27T01:10:12.752Z,12.15
2023-01-27T01:12:41.153Z,11.27
2023-01-27T01:15:12.490Z,7.72
2023-01-27T01:17:42.057Z,11.93
2023-01-27T01:20:10.839Z,10.52
2023-01-27T01:22:41.613Z,11.00
2023-01-27T01:25:10.239Z,10.05
2023-01-27T01:27:39.396Z,14.38
2023-01-27T01:30:11.290Z,11.40
2023-01-27T01:35:21.533Z,11.60
2023-01-27T01:37:50.292Z,8.73
2023-01-27T01:40:24.635Z,8.65
2023-01-27T01:43:02.404Z,9.68
2023-01-27T01:45:36.801Z,8.35
2023-01-27T01:48:12.755Z,8.38
2023-01-27T01:50:43.615Z,11.07
2023-01-27T01:53:12.507Z,9.82
2023-01-27T01:55:41.266Z,11.10
2023-01-27T01:58:12.111Z,11.45
2023-01-27T02:00:43.817Z,13.50
2023-01-27T02:03:16.343Z,9.85
2023-01-27T02:05:45.572Z,8.40
2023-01-27T02:08:38.721Z,13.10
2023-01-27T02:11:17.671Z,11.07
2023-01-27T02:13:46.922Z,11.82
2023-01-27T02:16:15.479Z,9.05
2023-01-27T02:21:17.556Z,13.43
2023-01-27T02:23:52.151Z,10.45
2023-01-27T02:26:31.286Z,10.88
2023-01-27T02:29:05.636Z,10.15
2023-01-27T02:31:35.374Z,12.07
2023-01-27T02:34:10.563Z,11.10
2023-01-27T02:36:48.115Z,10.70
2023-01-27T02:39:22.543Z,10.38
2023-01-27T02:41:57.776Z,9.13
2023-01-27T02:44:30.350Z,16.23
2023-01-27T02:47:01.489Z,12.73
2023-01-27T02:49:32.245Z,11.82
2023-01-27T02:52:00.153Z,9.00
2023-01-27T02:54:31.049Z,9.32
2023-01-27T02:56:59.969Z,9.93
2023-01-27T02:59:30.161Z,13.98
2023-01-27T03:02:00.211Z,9.77
2023-01-27T03:04:32.596Z,12.60
2023-01-27T03:07:02.944Z,9.40
2023-01-27T03:09:32.201Z,12.23
2023-01-27T03:12:19.930Z,10.20
2023-01-27T03:15:08.225Z,13.70
2023-01-27T03:17:56.861Z,10.90
2023-01-27T03:20:26.161Z,10.70
2023-01-27T03:22:55.133Z,11.57
2023-01-27T03:25:26.519Z,9.30
2023-01-27T03:27:58.868Z,12.88
2023-01-27T03:30:38.982Z,13.18
2023-01-27T03:33:15.399Z,10.95
2023-01-27T03:36:23.895Z,10.43
2023-01-27T03:39:11.462Z,11.65
2023-01-27T03:41:57.998Z,11.32
2023-01-27T03:44:46.260Z,10.20
2023-01-27T03:47:14.362Z,10.73
2023-01-27T03:49:42.129Z,9.70
2023-01-27T03:52:10.440Z,12.82
2023-01-27T03:54:42.862Z,9.82
2023-01-27T03:57:11.126Z,11.82
2023-01-27T03:59:39.686Z,15.43
2023-01-27T04:02:26.490Z,13.95
2023-01-27T04:05:13.306Z,11.57
2023-01-27T04:07:41.891Z,11.70
2023-01-27T04:10:11.289Z,11.55
2023-01-27T04:12:40.160Z,14.55
2023-01-27T04:15:11.304Z,11.95
2023-01-27T04:17:42.768Z,13.93
2023-01-27T04:20:11.494Z,12.40
2023-01-27T04:22:40.651Z,15.50
2023-01-27T04:25:12.265Z,13.88
2023-01-27T04:27:44.006Z,16.38
2023-01-27T04:30:13.694Z,11.70
2023-01-27T04:32:43.191Z,13.65
2023-01-27T04:35:11.721Z,14.23
2023-01-27T04:37:41.200Z,17.52
2023-01-27T04:40:11.810Z,14.13
2023-01-27T04:42:41.743Z,15.93
2023-01-27T04:45:16.064Z,16.95
2023-01-27T04:47:48.797Z,16.90
2023-01-27T04:50:17.141Z,16.90
2023-01-27T04:52:45.350Z,15.38
2023-01-27T04:55:17.059Z,15.10
2023-01-27T04:57:46.434Z,14.48
2023-01-27T05:00:17.423Z,15.30
2023-01-27T05:02:48.726Z,20.70
2023-01-27T05:10:25.727Z,15.38
2023-01-27T05:13:41.875Z,14.75
2023-01-27T05:19:52.899Z,13.57
2023-01-27T05:22:59.454Z,13.57
2023-01-27T05:25:42.392Z,16.88
2023-01-27T05:28:28.422Z,16.48
2023-01-27T05:31:25.770Z,14.70
2023-01-27T05:34:03.212Z,14.90
2023-01-27T05:36:31.791Z,13.90
2023-01-27T05:39:07.790Z,13.68
2023-01-27T05:41:41.990Z,17.20
2023-01-27T05:44:12.628Z,12.30
2023-01-27T05:46:41.948Z,13.52
2023-01-27T05:49:09.952Z,11.10
2023-01-27T05:51:40.395Z,14.23
2023-01-27T05:54:09.142Z,10.93
2023-01-27T05:56:40.842Z,12.52
2023-01-27T05:59:12.620Z,14.35
2023-01-27T06:01:41.764Z,11.43
2023-01-27T06:04:10.687Z,11.98
2023-01-27T06:09:07.695Z,14.05
2023-01-27T06:11:36.966Z,13.35
2023-01-27T06:14:05.487Z,11.73
2023-01-27T06:16:35.006Z,14.68
2023-01-27T06:19:03.564Z,14.60
2023-01-27T06:21:32.264Z,12.98
2023-01-27T06:24:00.704Z,14.68
2023-01-27T06:26:29.610Z,12.63
2023-01-27T06:28:58.790Z,10.48
2023-01-27T06:31:28.841Z,10.80
2023-01-27T06:33:57.623Z,12.80
2023-01-27T06:36:27.410Z,10.07
2023-01-27T06:38:55.535Z,12.40
2023-01-27T06:41:24.909Z,10.15
2023-01-27T06:43:53.095Z,12.75
2023-01-27T06:46:21.441Z,10.50
2023-01-27T06:48:49.585Z,12.30
2023-01-27T06:51:19.586Z,12.07
2023-01-27T06:53:47.619Z,10.57
2023-01-27T06:56:18.958Z,10.43
2023-01-27T06:58:47.528Z,13.60
2023-01-27T07:01:16.341Z,9.48
2023-01-27T07:03:45.350Z,13.32
2023-01-27T07:06:16.145Z,10.00
2023-01-27T07:08:47.107Z,11.63
2023-01-27T07:11:15.547Z,8.80
2023-01-27T07:13:44.074Z,10.25
2023-01-27T07:16:15.260Z,11.18
2023-01-27T07:18:43.104Z,11.38
2023-01-27T07:21:12.762Z,8.82
2023-01-27T07:23:40.596Z,10.38
2023-01-27T07:26:24.342Z,7.60
2023-01-27T07:28:53.791Z,8.05
2023-01-27T07:31:22.868Z,7.18
2023-01-27T07:33:53.177Z,6.80
2023-01-27T07:36:22.032Z,10.43
2023-01-27T07:38:51.057Z,10.38
2023-01-27T07:41:23.132Z,6.97
2023-01-27T07:43:52.434Z,9.02
2023-01-27T07:46:21.332Z,11.43
2023-01-27T07:48:49.938Z,10.60
2023-01-27T07:51:19.548Z,11.40
2023-01-27T07:53:47.497Z,9.50
2023-01-27T07:56:16.348Z,12.13
2023-01-27T07:58:44.685Z,8.20
2023-01-27T08:01:13.373Z,11.90
2023-01-27T08:03:41.416Z,14.20
2023-01-27T08:06:13.035Z,9.18
2023-01-27T08:08:43.767Z,7.07
2023-01-27T08:11:14.187Z,8.20
2023-01-27T08:13:42.668Z,10.93
2023-01-27T08:16:15.624Z,9.25
2023-01-27T08:18:44.263Z,6.88
2023-01-27T08:21:14.291Z,9.57
2023-01-27T08:23:42.340Z,11.70
2023-01-27T08:26:10.996Z,11.30
2023-01-27T08:28:39.992Z,8.32
2023-01-27T08:31:09.278Z,10.70
2023-01-27T08:33:38.137Z,7.63
2023-01-27T08:36:10.735Z,6.32
2023-01-27T08:38:39.736Z,6.07
2023-01-27T08:41:11.165Z,7.07
2023-01-27T08:43:39.217Z,12.15
2023-01-27T08:46:07.600Z,8.30
2023-01-27T08:48:38.304Z,10.75
2023-01-27T08:51:07.386Z,8.30
2023-01-27T08:53:37.114Z,7.20
2023-01-27T08:56:09.646Z,8.37
2023-01-27T08:58:37.926Z,12.15
2023-01-27T09:03:09.576Z,12.65
2023-01-27T09:05:38.095Z,9.32
2023-01-27T09:08:06.590Z,10.07
2023-01-27T09:10:39.798Z,10.50
2023-01-27T09:13:09.700Z,10.07
2023-01-27T09:15:38.853Z,15.93
2023-01-27T09:18:06.983Z,8.80
2023-01-27T09:20:37.459Z,11.55
2023-01-27T09:23:06.867Z,9.02
2023-01-27T09:25:35.643Z,5.97
2023-01-27T09:28:03.628Z,9.85
2023-01-27T09:30:32.534Z,10.43
2023-01-27T09:33:01.655Z,11.57
2023-01-27T09:35:38.838Z,8.20
2023-01-27T09:38:08.023Z,12.48
2023-01-27T09:40:44.872Z,10.90
2023-01-27T09:43:34.374Z,11.00
2023-01-27T09:46:44.792Z,9.27
2023-01-27T09:49:22.002Z,9.60
2023-01-27T09:52:46.507Z,8.57
2023-01-27T09:55:38.939Z,11.13
2023-01-27T09:58:13.881Z,10.93
2023-01-27T10:00:48.819Z,13.73
2023-01-27T10:03:31.221Z,12.07
2023-01-27T10:06:22.673Z,6.85
2023-01-27T10:09:06.340Z,9.07
2023-01-27T10:12:09.994Z,9.80
2023-01-27T10:15:14.310Z,13.35
2023-01-27T10:18:04.447Z,11.32
2023-01-27T10:21:03.964Z,9.03
2023-01-27T10:23:43.348Z,11.07
2023-01-27T10:26:42.140Z,8.25
2023-01-27T10:29:23.868Z,14.07
2023-01-27T10:32:01.672Z,14.30
2023-01-27T10:34:44.151Z,11.93
2023-01-27T10:37:43.465Z,14.10
2023-01-27T10:40:28.597Z,7.13
2023-01-27T10:43:31.542Z,12.25
2023-01-27T10:46:13.326Z,10.38
2023-01-27T10:48:51.482Z,12.15
2023-01-27T10:51:29.864Z,9.55
2023-01-27T10:54:42.096Z,8.68
2023-01-27T10:57:31.627Z,7.88
2023-01-27T11:00:46.487Z,9.15
2023-01-27T11:03:12.604Z,9.82
2023-01-27T11:05:46.914Z,7.28
2023-01-27T11:08:25.987Z,14.60
2023-01-27T11:11:16.774Z,8.88
2023-01-27T11:13:46.255Z,14.48
2023-01-27T11:16:16.997Z,8.20
2023-01-27T11:18:46.996Z,7.82
2023-01-27T11:21:29.450Z,25.75
2023-01-27T11:24:00.624Z,8.07
2023-01-27T11:26:41.526Z,7.50
2023-01-27T11:29:27.916Z,7.95
2023-01-27T11:32:16.934Z,12.18
2023-01-27T11:35:03.605Z,7.20
2023-01-27T11:37:56.274Z,6.65
2023-01-27T11:40:33.088Z,11.57
2023-01-27T11:43:03.893Z,11.00
2023-01-27T11:45:35.972Z,7.45
2023-01-27T11:48:11.453Z,9.48
2023-01-27T11:50:41.248Z,12.15
2023-01-27T11:53:32.195Z,10.05
2023-01-27T11:56:06.381Z,11.52
2023-01-27T11:58:56.403Z,6.95
2023-01-27T12:01:49.494Z,8.75
2023-01-27T12:04:52.946Z,7.80
2023-01-27T12:07:35.822Z,9.35
2023-01-27T12:10:21.318Z,7.15
2023-01-27T12:12:49.517Z,10.60
2023-01-27T12:15:18.649Z,8.43
2023-01-27T12:17:56.114Z,9.57
2023-01-27T12:20:38.552Z,8.00
2023-01-27T12:23:34.306Z,9.65
2023-01-27T12:26:05.411Z,7.20
2023-01-27T12:28:41.975Z,7.55
2023-01-27T12:31:27.348Z,9.25
2023-01-27T12:34:08.475Z,10.25
2023-01-27T12:36:42.264Z,11.55
2023-01-27T12:39:28.748Z,12.38
2023-01-27T12:41:57.747Z,8.07
2023-01-27T12:44:29.289Z,8.77
2023-01-27T12:47:19.394Z,6.55
2023-01-27T12:49:48.911Z,10.40
2023-01-27T12:52:21.944Z,11.75
2023-01-27T12:54:52.103Z,7.00
2023-01-27T12:57:21.726Z,6.70
2023-01-27T12:59:53.279Z,9.52
2023-01-27T13:02:24.086Z,9.82
2023-01-27T13:04:58.469Z,10.55
2023-01-27T13:07:37.702Z,9.25
2023-01-27T13:10:20.687Z,8.27
2023-01-27T13:12:50.619Z,9.82
2023-01-27T13:15:22.254Z,7.43
2023-01-27T13:17:56.358Z,9.50
2023-01-27T13:20:39.297Z,12.43
2023-01-27T13:23:19.585Z,10.20
2023-01-27T13:25:52.522Z,13.75
2023-01-27T13:28:28.393Z,9.38
2023-01-27T13:31:03.230Z,10.20
2023-01-27T13:33:41.171Z,11.43
2023-01-27T13:36:21.322Z,11.73
2023-01-27T13:38:54.925Z,8.65
2023-01-27T13:41:32.604Z,6.00
2023-01-27T13:44:12.101Z,14.10
2023-01-27T13:46:44.876Z,13.38
2023-01-27T13:49:38.199Z,7.20
2023-01-27T13:52:08.057Z,6.97
2023-01-27T13:54:36.568Z,7.15
2023-01-27T13:57:41.645Z,9.25
2023-01-27T14:00:19.632Z,9.13
2023-01-27T14:03:02.281Z,8.23
2023-01-27T14:06:04.484Z,9.25
2023-01-27T14:11:18.421Z,8.88
2023-01-27T14:14:02.129Z,8.75
2023-01-27T14:16:55.116Z,8.35
2023-01-27T14:19:39.540Z,9.43
2023-01-27T14:22:17.297Z,9.77
2023-01-27T14:24:53.303Z,8.52
2023-01-27T14:27:39.712Z,11.32
2023-01-27T14:30:22.749Z,8.50
2023-01-27T14:33:02.816Z,8.18
2023-01-27T14:35:54.885Z,9.82
2023-01-27T14:38:31.937Z,8.95
2023-01-27T14:41:18.241Z,8.55
2023-01-27T14:44:04.481Z,11.68
2023-01-27T14:46:57.021Z,7.90
2023-01-27T14:49:31.940Z,7.72
2023-01-27T14:52:37.533Z,8.05
2023-01-27T14:55:31.969Z,10.07
2023-01-27T14:58:31.713Z,7.15
2023-01-27T15:01:35.064Z,13.38
2023-01-27T15:04:30.115Z,8.88
2023-01-27T15:07:19.347Z,7.95
2023-01-27T15:10:20.469Z,8.73
2023-01-27T15:13:11.643Z,6.75
2023-01-27T15:16:16.453Z,12.00
2023-01-27T15:18:53.401Z,6.50
2023-01-27T15:21:39.052Z,9.68
2023-01-27T15:24:26.581Z,8.52
2023-01-27T15:26:55.576Z,8.55
2023-01-27T15:29:29.329Z,7.80
2023-01-27T15:32:15.706Z,6.75
2023-01-27T15:34:46.246Z,10.43
2023-01-27T15:37:21.584Z,8.48
2023-01-27T15:40:06.605Z,5.75
2023-01-27T15:43:00.469Z,9.05
2023-01-27T15:45:38.035Z,12.85
2023-01-27T15:48:05.981Z,9.90
2023-01-27T15:50:38.290Z,9.05
2023-01-27T15:53:16.436Z,17.17
2023-01-27T15:55:51.395Z,9.25
2023-01-27T15:58:46.339Z,7.80
2023-01-27T16:01:30.312Z,9.45
2023-01-27T16:04:38.003Z,10.63
2023-01-27T16:07:31.561Z,8.32
2023-01-27T16:10:00.800Z,7.65
2023-01-27T16:12:43.238Z,8.80
2023-01-27T16:15:34.202Z,8.93
2023-01-27T16:18:08.298Z,11.05
2023-01-27T16:20:42.537Z,9.80
2023-01-27T16:23:19.306Z,6.75
2023-01-27T16:25:54.908Z,9.15
2023-01-27T16:28:27.572Z,8.48
2023-01-27T16:31:02.222Z,10.13
2023-01-27T16:33:37.466Z,10.35
2023-01-27T16:36:23.195Z,7.45
2023-01-27T16:38:52.850Z,9.25
2023-01-27T16:41:27.552Z,6.95
2023-01-27T16:44:01.522Z,6.72
2023-01-27T16:47:15.082Z,8.90
2023-01-27T16:49:45.701Z,12.00
2023-01-27T16:52:24.704Z,12.35
2023-01-27T16:54:59.256Z,7.00
2023-01-27T16:57:30.423Z,7.53
2023-01-27T17:00:30.187Z,10.25
2023-01-27T17:03:02.804Z,5.97
2023-01-27T17:05:31.697Z,14.63
2023-01-27T17:08:25.635Z,6.05
2023-01-27T17:11:04.774Z,8.32
2023-01-27T17:13:36.267Z,9.63
2023-01-27T17:16:07.401Z,7.32
2023-01-27T17:18:51.673Z,9.15
2023-01-27T17:21:31.715Z,6.55
2023-01-27T17:24:32.382Z,10.75
2023-01-27T17:27:09.143Z,9.63
2023-01-27T17:29:45.690Z,13.07
2023-01-27T17:32:26.228Z,10.85
2023-01-27T17:35:02.033Z,11.60
2023-01-27T17:37:31.406Z,13.50
2023-01-27T17:40:03.428Z,15.57
2023-01-27T17:42:33.885Z,19.08
2023-01-27T17:45:22.756Z,15.32
2023-01-27T17:47:51.429Z,13.85
2023-01-27T17:50:23.023Z,11.32
2023-01-27T17:55:24.690Z,11.48
2023-01-27T18:00:40.215Z,13.48
2023-01-27T18:03:36.953Z,13.63
2023-01-27T18:06:06.388Z,14.93
2023-01-27T18:08:35.765Z,12.50
2023-01-27T18:11:23.616Z,15.63
2023-01-27T18:13:54.496Z,13.35
2023-01-27T18:16:24.524Z,20.92
2023-01-27T18:18:53.803Z,21.88
2023-01-27T18:21:26.194Z,20.88
2023-01-27T18:23:57.543Z,20.40
2023-01-27T18:26:32.528Z,21.90
2023-01-27T18:29:17.805Z,24.17
2023-01-27T18:31:55.455Z,26.38
2023-01-27T18:34:31.208Z,21.42
2023-01-27T18:37:02.818Z,20.85
2023-01-27T18:39:39.618Z,20.92
2023-01-27T18:42:16.127Z,24.55
2023-01-27T18:44:45.418Z,28.20
2023-01-27T18:47:19.408Z,22.00
2023-01-27T18:49:59.454Z,19.83
2023-01-27T18:52:31.068Z,20.17
2023-01-27T18:55:06.976Z,19.45
2023-01-27T18:57:35.291Z,20.27
2023-01-27T19:00:05.241Z,18.67
2023-01-27T19:02:33.272Z,23.20
2023-01-27T19:05:03.063Z,20.52
2023-01-27T19:07:32.790Z,18.23
2023-01-27T19:10:00.862Z,22.92
2023-01-27T19:12:28.590Z,23.00
2023-01-27T19:14:57.071Z,16.02
2023-01-27T19:17:25.381Z,18.10
2023-01-27T19:19:56.324Z,19.52
2023-01-27T19:22:24.545Z,17.27
2023-01-27T19:24:52.961Z,21.20
2023-01-27T19:27:21.486Z,19.70
2023-01-27T19:29:49.724Z,20.95
2023-01-27T19:32:17.948Z,17.02
2023-01-27T19:34:45.919Z,15.40
2023-01-27T19:37:21.325Z,19.58
2023-01-27T19:39:49.355Z,18.25
2023-01-27T19:42:17.585Z,15.25
2023-01-27T19:44:45.580Z,16.35
2023-01-27T19:47:13.901Z,19.90
2023-01-27T19:49:42.411Z,16.60
2023-01-27T19:52:13.597Z,16.27
2023-01-27T19:54:41.625Z,22.67
2023-01-27T19:57:17.094Z,17.13
2023-01-27T19:59:45.909Z,21.38
2023-01-27T20:02:14.074Z,20.50
2023-01-27T20:04:42.554Z,20.58
2023-01-27T20:07:12.480Z,23.77
2023-01-27T20:09:40.477Z,20.25
2023-01-27T20:12:15.822Z,20.30
2023-01-27T20:14:46.934Z,24.20
2023-01-27T20:17:16.231Z,22.88
2023-01-27T20:19:47.767Z,23.88
2023-01-27T20:22:15.517Z,23.23
2023-01-27T20:24:43.535Z,18.08
2023-01-27T20:27:11.267Z,16.88
2023-01-27T20:29:39.716Z,19.58
2023-01-27T20:32:09.567Z,19.40
2023-01-27T20:34:39.031Z,15.40
2023-01-27T20:37:07.678Z,18.33
2023-01-27T20:39:35.708Z,16.85
2023-01-27T20:42:04.687Z,15.65
2023-01-27T20:44:33.469Z,16.38
2023-01-27T20:47:01.232Z,12.68
2023-01-27T20:49:31.353Z,12.90
2023-01-27T20:51:59.622Z,14.70
2023-01-27T20:54:27.654Z,14.10
2023-01-27T20:56:55.448Z,13.65
2023-01-27T20:59:24.089Z,19.50
2023-01-27T21:01:51.978Z,14.73
2023-01-27T21:04:20.509Z,17.30
2023-01-27T21:06:48.745Z,16.58
2023-01-27T21:09:19.880Z,17.42
2023-01-27T21:11:48.180Z,13.20
2023-01-27T21:14:18.832Z,13.38
2023-01-27T21:16:46.732Z,13.02
2023-01-27T21:19:16.120Z,16.63
2023-01-27T21:21:44.978Z,14.57
2023-01-27T21:24:13.244Z,21.08
2023-01-27T21:26:41.082Z,15.45
2023-01-27T21:29:11.362Z,14.13
2023-01-27T21:31:40.588Z,16.23
2023-01-27T21:34:10.584Z,18.77
2023-01-27T21:36:38.550Z,17.83
2023-01-27T21:39:07.282Z,15.38
2023-01-27T21:41:53.221Z,16.83
2023-01-27T21:44:42.617Z,17.23
2023-01-27T21:47:13.977Z,16.30
2023-01-27T21:50:01.965Z,13.25
2023-01-27T21:52:51.396Z,15.20
2023-01-27T21:55:24.535Z,14.93
2023-01-27T21:57:54.459Z,18.98
2023-01-27T22:00:27.640Z,17.23
2023-01-27T22:03:00.593Z,12.93
2023-01-27T22:05:30.656Z,13.63
2023-01-27T22:08:01.682Z,11.48
2023-01-27T22:10:30.561Z,13.50
2023-01-27T22:13:01.014Z,17.55
2023-01-27T22:15:29.791Z,17.80
2023-01-27T22:17:58.744Z,16.75
2023-01-27T22:20:30.371Z,20.25
2023-01-27T22:22:58.645Z,16.58
2023-01-27T22:25:27.511Z,22.15
2023-01-27T22:27:55.500Z,17.70
2023-01-27T22:30:23.726Z,17.52
2023-01-27T22:32:51.681Z,22.77
2023-01-27T22:35:19.917Z,19.75
2023-01-27T22:37:50.493Z,12.15
2023-01-27T22:40:19.030Z,13.13
2023-01-27T22:42:48.716Z,14.68
2023-01-27T22:45:17.341Z,16.65
2023-01-27T22:47:45.833Z,15.43
2023-01-27T22:50:15.253Z,19.52
2023-01-27T22:52:43.402Z,12.90
2023-01-27T22:55:12.850Z,15.18
2023-01-27T22:57:44.657Z,12.32
2023-01-27T23:00:13.618Z,14.38
2023-01-27T23:02:41.537Z,12.50
2023-01-27T23:05:11.320Z,14.82
2023-01-27T23:07:40.159Z,14.77
2023-01-27T23:10:09.915Z,11.35
2023-01-27T23:12:37.723Z,13.35
2023-01-27T23:15:06.822Z,13.10
2023-01-27T23:17:34.560Z,13.13
2023-01-27T23:20:02.964Z,14.07
2023-01-27T23:22:31.140Z,12.60
2023-01-27T23:24:59.803Z,15.45
2023-01-27T23:27:28.703Z,12.13
2023-01-27T23:29:56.745Z,16.33
2023-01-27T23:32:24.566Z,14.25
2023-01-27T23:34:52.564Z,20.60
2023-01-27T23:37:20.375Z,15.70
2023-01-27T23:39:49.795Z,20.23
2023-01-27T23:42:20.530Z,15.57
2023-01-27T23:44:48.628Z,18.83
2023-01-27T23:47:16.587Z,15.43
2023-01-27T23:49:45.226Z,16.55
2023-01-27T23:52:13.030Z,17.73
2023-01-27T23:54:41.791Z,19.90
2023-01-27T23:57:10.287Z,16.08
2023-01-27T23:59:38.441Z,17.88
